sensor_id;sensor_type;location;lat;lon;timestamp;P1;durP1;ratioP1;P2;durP2;ratioP2
76761;SDS011;65705;51.032;13.790;2023-06-10T00:02:11;8.65;;;5.80;;
76761;SDS011;65705;51.032;13.790;2023-06-10T00:04:37;8.52;;;6.03;;
76761;SDS011;65705;51.032;13.790;2023-06-10T00:07:05;8.38;;;5.43;;
76761;SDS011;65705;51.032;13.790;2023-06-10T00:09:37;13.45;;;6.00;;
76761;SDS011;65705;51.032;13.790;2023-06-10T00:12:04;10.20;;;6.50;;
76761;SDS011;65705;51.032;13.790;2023-06-10T00:14:30;12.23;;;7.20;;
76761;SDS011;65705;51.032;13.790;2023-06-10T00:16:56;10.00;;;5.82;;
76761;SDS011;65705;51.032;13.790;2023-06-10T00:19:23;11.38;;;6.43;;
76761;SDS011;65705;51.032;13.790;2023-06-10T00:21:51;11.30;;;6.72;;
76761;SDS011;65705;51.032;13.790;2023-06-10T00:24:17;16.65;;;6.82;;
76761;SDS011;65705;51.032;13.790;2023-06-10T00:26:43;10.35;;;6.15;;
76761;SDS011;65705;51.032;13.790;2023-06-10T00:29:10;10.55;;;5.90;;
76761;SDS011;65705;51.032;13.790;2023-06-10T00:31:36;10.48;;;6.10;;
76761;SDS011;65705;51.032;13.790;2023-06-10T00:36:32;10.02;;;6.55;;
76761;SDS011;65705;51.032;13.790;2023-06-10T00:38:58;9.70;;;5.90;;
76761;SDS011;65705;51.032;13.790;2023-06-10T00:41:24;8.93;;;6.15;;
76761;SDS011;65705;51.032;13.790;2023-06-10T00:43:53;9.95;;;6.35;;
76761;SDS011;65705;51.032;13.790;2023-06-10T00:46:19;8.95;;;6.40;;
76761;SDS011;65705;51.032;13.790;2023-06-10T00:48:46;11.05;;;6.80;;
76761;SDS011;65705;51.032;13.790;2023-06-10T00:51:12;10.77;;;6.95;;
76761;SDS011;65705;51.032;13.790;2023-06-10T00:53:39;14.20;;;5.95;;
76761;SDS011;65705;51.032;13.790;2023-06-10T00:56:07;10.45;;;6.30;;
76761;SDS011;65705;51.032;13.790;2023-06-10T00:58:34;7.32;;;5.40;;
76761;SDS011;65705;51.032;13.790;2023-06-10T01:01:01;12.15;;;6.40;;
76761;SDS011;65705;51.032;13.790;2023-06-10T01:03:27;9.85;;;6.00;;
76761;SDS011;65705;51.032;13.790;2023-06-10T01:06:01;7.57;;;5.53;;
76761;SDS011;65705;51.032;13.790;2023-06-10T01:08:40;10.27;;;6.20;;
76761;SDS011;65705;51.032;13.790;2023-06-10T01:11:39;9.15;;;6.07;;
76761;SDS011;65705;51.032;13.790;2023-06-10T01:14:09;12.05;;;6.72;;
76761;SDS011;65705;51.032;13.790;2023-06-10T01:16:35;11.88;;;6.57;;
76761;SDS011;65705;51.032;13.790;2023-06-10T01:19:02;12.48;;;6.78;;
76761;SDS011;65705;51.032;13.790;2023-06-10T01:21:28;9.02;;;6.35;;
76761;SDS011;65705;51.032;13.790;2023-06-10T01:23:54;11.43;;;7.25;;
76761;SDS011;65705;51.032;13.790;2023-06-10T01:26:22;10.73;;;7.15;;
76761;SDS011;65705;51.032;13.790;2023-06-10T01:34:08;14.93;;;7.72;;
76761;SDS011;65705;51.032;13.790;2023-06-10T01:36:40;10.73;;;6.82;;
76761;SDS011;65705;51.032;13.790;2023-06-10T01:39:08;10.10;;;7.07;;
76761;SDS011;65705;51.032;13.790;2023-06-10T01:41:36;10.00;;;7.20;;
76761;SDS011;65705;51.032;13.790;2023-06-10T01:44:03;11.50;;;7.30;;
76761;SDS011;65705;51.032;13.790;2023-06-10T01:46:29;14.38;;;7.35;;
76761;SDS011;65705;51.032;13.790;2023-06-10T01:48:55;11.40;;;7.15;;
76761;SDS011;65705;51.032;13.790;2023-06-10T01:51:21;10.93;;;7.47;;
76761;SDS011;65705;51.032;13.790;2023-06-10T01:53:47;10.95;;;7.63;;
76761;SDS011;65705;51.032;13.790;2023-06-10T01:56:13;11.38;;;7.60;;
76761;SDS011;65705;51.032;13.790;2023-06-10T01:58:43;12.45;;;6.90;;
76761;SDS011;65705;51.032;13.790;2023-06-10T02:01:09;10.43;;;6.97;;
76761;SDS011;65705;51.032;13.790;2023-06-10T02:03:36;10.88;;;7.30;;
76761;SDS011;65705;51.032;13.790;2023-06-10T02:06:01;10.13;;;6.97;;
76761;SDS011;65705;51.032;13.790;2023-06-10T02:08:27;12.20;;;7.18;;
76761;SDS011;65705;51.032;13.790;2023-06-10T02:10:53;10.90;;;7.07;;
76761;SDS011;65705;51.032;13.790;2023-06-10T02:13:19;10.52;;;7.35;;
76761;SDS011;65705;51.032;13.790;2023-06-10T02:15:53;12.02;;;6.95;;
76761;SDS011;65705;51.032;13.790;2023-06-10T02:18:19;9.85;;;6.95;;
76761;SDS011;65705;51.032;13.790;2023-06-10T02:20:46;13.93;;;7.88;;
76761;SDS011;65705;51.032;13.790;2023-06-10T02:23:12;10.20;;;7.18;;
76761;SDS011;65705;51.032;13.790;2023-06-10T02:25:38;12.40;;;7.45;;
76761;SDS011;65705;51.032;13.790;2023-06-10T02:28:04;12.00;;;6.60;;
76761;SDS011;65705;51.032;13.790;2023-06-10T02:30:29;12.30;;;7.72;;
76761;SDS011;65705;51.032;13.790;2023-06-10T02:32:55;10.05;;;6.97;;
76761;SDS011;65705;51.032;13.790;2023-06-10T02:35:23;14.48;;;8.00;;
76761;SDS011;65705;51.032;13.790;2023-06-10T02:37:50;11.52;;;7.05;;
76761;SDS011;65705;51.032;13.790;2023-06-10T02:40:18;12.35;;;7.28;;
76761;SDS011;65705;51.032;13.790;2023-06-10T02:42:43;12.30;;;7.05;;
76761;SDS011;65705;51.032;13.790;2023-06-10T02:45:09;12.95;;;7.40;;
76761;SDS011;65705;51.032;13.790;2023-06-10T02:47:39;11.85;;;7.38;;
76761;SDS011;65705;51.032;13.790;2023-06-10T02:50:06;9.50;;;7.13;;
76761;SDS011;65705;51.032;13.790;2023-06-10T02:52:37;10.63;;;7.25;;
76761;SDS011;65705;51.032;13.790;2023-06-10T02:55:04;10.65;;;7.35;;
76761;SDS011;65705;51.032;13.790;2023-06-10T02:57:31;10.27;;;6.90;;
76761;SDS011;65705;51.032;13.790;2023-06-10T02:59:57;10.18;;;7.15;;
76761;SDS011;65705;51.032;13.790;2023-06-10T03:02:24;11.27;;;7.00;;
76761;SDS011;65705;51.032;13.790;2023-06-10T03:07:21;10.40;;;7.38;;
76761;SDS011;65705;51.032;13.790;2023-06-10T03:09:48;12.32;;;8.02;;
76761;SDS011;65705;51.032;13.790;2023-06-10T03:12:14;10.70;;;6.97;;
76761;SDS011;65705;51.032;13.790;2023-06-10T03:14:44;9.32;;;6.97;;
76761;SDS011;65705;51.032;13.790;2023-06-10T03:17:10;14.02;;;7.85;;
76761;SDS011;65705;51.032;13.790;2023-06-10T03:19:39;11.73;;;7.68;;
76761;SDS011;65705;51.032;13.790;2023-06-10T03:22:11;12.65;;;7.55;;
76761;SDS011;65705;51.032;13.790;2023-06-10T03:24:52;11.85;;;7.53;;
76761;SDS011;65705;51.032;13.790;2023-06-10T03:27:18;10.20;;;7.07;;
76761;SDS011;65705;51.032;13.790;2023-06-10T03:29:48;10.32;;;7.43;;
76761;SDS011;65705;51.032;13.790;2023-06-10T03:32:14;12.98;;;7.43;;
76761;SDS011;65705;51.032;13.790;2023-06-10T03:34:41;9.80;;;6.45;;
76761;SDS011;65705;51.032;13.790;2023-06-10T03:37:08;10.60;;;7.25;;
76761;SDS011;65705;51.032;13.790;2023-06-10T03:39:34;12.38;;;6.60;;
76761;SDS011;65705;51.032;13.790;2023-06-10T03:42:01;11.77;;;6.97;;
76761;SDS011;65705;51.032;13.790;2023-06-10T03:44:28;9.02;;;6.60;;
76761;SDS011;65705;51.032;13.790;2023-06-10T03:46:54;11.07;;;6.72;;
76761;SDS011;65705;51.032;13.790;2023-06-10T03:49:21;12.75;;;6.68;;
76761;SDS011;65705;51.032;13.790;2023-06-10T03:51:54;11.48;;;6.97;;
76761;SDS011;65705;51.032;13.790;2023-06-10T03:54:20;11.18;;;6.68;;
76761;SDS011;65705;51.032;13.790;2023-06-10T03:56:46;9.82;;;6.53;;
76761;SDS011;65705;51.032;13.790;2023-06-10T03:59:13;9.05;;;6.35;;
76761;SDS011;65705;51.032;13.790;2023-06-10T04:01:39;11.48;;;6.63;;
76761;SDS011;65705;51.032;13.790;2023-06-10T04:04:07;9.90;;;6.60;;
76761;SDS011;65705;51.032;13.790;2023-06-10T04:06:34;10.00;;;7.13;;
76761;SDS011;65705;51.032;13.790;2023-06-10T04:08:59;9.90;;;6.60;;
76761;SDS011;65705;51.032;13.790;2023-06-10T04:11:27;10.48;;;5.80;;
76761;SDS011;65705;51.032;13.790;2023-06-10T04:13:56;9.68;;;6.40;;
76761;SDS011;65705;51.032;13.790;2023-06-10T04:16:23;8.98;;;6.38;;
76761;SDS011;65705;51.032;13.790;2023-06-10T04:18:49;10.10;;;6.88;;
76761;SDS011;65705;51.032;13.790;2023-06-10T04:21:16;10.90;;;7.03;;
76761;SDS011;65705;51.032;13.790;2023-06-10T04:23:42;9.93;;;6.55;;
76761;SDS011;65705;51.032;13.790;2023-06-10T04:26:09;9.82;;;5.82;;
76761;SDS011;65705;51.032;13.790;2023-06-10T04:28:38;10.18;;;5.88;;
76761;SDS011;65705;51.032;13.790;2023-06-10T04:31:03;11.68;;;6.18;;
76761;SDS011;65705;51.032;13.790;2023-06-10T04:33:30;8.90;;;6.47;;
76761;SDS011;65705;51.032;13.790;2023-06-10T04:35:57;8.88;;;6.22;;
76761;SDS011;65705;51.032;13.790;2023-06-10T04:38:25;9.18;;;6.25;;
76761;SDS011;65705;51.032;13.790;2023-06-10T04:40:52;9.85;;;6.07;;
76761;SDS011;65705;51.032;13.790;2023-06-10T04:43:19;7.55;;;5.80;;
76761;SDS011;65705;51.032;13.790;2023-06-10T04:45:46;10.55;;;6.95;;
76761;SDS011;65705;51.032;13.790;2023-06-10T04:48:12;16.35;;;7.57;;
76761;SDS011;65705;51.032;13.790;2023-06-10T04:50:39;9.85;;;6.72;;
76761;SDS011;65705;51.032;13.790;2023-06-10T04:53:04;13.10;;;7.18;;
76761;SDS011;65705;51.032;13.790;2023-06-10T04:55:32;12.15;;;7.85;;
76761;SDS011;65705;51.032;13.790;2023-06-10T04:57:58;10.27;;;7.30;;
76761;SDS011;65705;51.032;13.790;2023-06-10T05:00:24;9.77;;;6.95;;
76761;SDS011;65705;51.032;13.790;2023-06-10T05:02:50;10.93;;;5.95;;
76761;SDS011;65705;51.032;13.790;2023-06-10T05:05:17;9.07;;;6.10;;
76761;SDS011;65705;51.032;13.790;2023-06-10T05:07:43;9.93;;;6.47;;
76761;SDS011;65705;51.032;13.790;2023-06-10T05:10:09;11.88;;;5.95;;
76761;SDS011;65705;51.032;13.790;2023-06-10T05:12:38;14.25;;;6.72;;
76761;SDS011;65705;51.032;13.790;2023-06-10T05:15:05;10.00;;;5.82;;
76761;SDS011;65705;51.032;13.790;2023-06-10T05:17:32;11.32;;;5.60;;
76761;SDS011;65705;51.032;13.790;2023-06-10T05:19:57;10.70;;;6.07;;
76761;SDS011;65705;51.032;13.790;2023-06-10T05:22:23;7.22;;;5.63;;
76761;SDS011;65705;51.032;13.790;2023-06-10T05:24:52;15.63;;;6.50;;
76761;SDS011;65705;51.032;13.790;2023-06-10T05:27:19;8.23;;;6.00;;
76761;SDS011;65705;51.032;13.790;2023-06-10T05:29:44;8.75;;;5.70;;
76761;SDS011;65705;51.032;13.790;2023-06-10T05:32:13;8.88;;;5.60;;
76761;SDS011;65705;51.032;13.790;2023-06-10T05:34:39;7.63;;;5.90;;
76761;SDS011;65705;51.032;13.790;2023-06-10T05:37:05;12.30;;;6.13;;
76761;SDS011;65705;51.032;13.790;2023-06-10T05:39:31;8.65;;;5.97;;
76761;SDS011;65705;51.032;13.790;2023-06-10T05:41:56;9.85;;;5.97;;
76761;SDS011;65705;51.032;13.790;2023-06-10T05:44:24;13.30;;;6.57;;
76761;SDS011;65705;51.032;13.790;2023-06-10T05:46:50;8.15;;;5.82;;
76761;SDS011;65705;51.032;13.790;2023-06-10T05:49:16;8.15;;;5.75;;
76761;SDS011;65705;51.032;13.790;2023-06-10T05:51:42;8.63;;;6.03;;
76761;SDS011;65705;51.032;13.790;2023-06-10T05:54:08;7.80;;;6.05;;
76761;SDS011;65705;51.032;13.790;2023-06-10T05:56:33;7.75;;;5.63;;
76761;SDS011;65705;51.032;13.790;2023-06-10T05:58:59;8.82;;;6.25;;
76761;SDS011;65705;51.032;13.790;2023-06-10T06:01:25;8.82;;;5.28;;
76761;SDS011;65705;51.032;13.790;2023-06-10T06:03:51;9.40;;;5.55;;
76761;SDS011;65705;51.032;13.790;2023-06-10T06:06:17;7.15;;;5.00;;
76761;SDS011;65705;51.032;13.790;2023-06-10T06:08:45;8.88;;;5.22;;
76761;SDS011;65705;51.032;13.790;2023-06-10T06:11:11;7.38;;;5.20;;
76761;SDS011;65705;51.032;13.790;2023-06-10T06:13:37;7.68;;;4.88;;
76761;SDS011;65705;51.032;13.790;2023-06-10T06:16:03;7.40;;;4.00;;
76761;SDS011;65705;51.032;13.790;2023-06-10T06:18:28;11.30;;;4.57;;
76761;SDS011;65705;51.032;13.790;2023-06-10T06:20:54;9.05;;;4.80;;
76761;SDS011;65705;51.032;13.790;2023-06-10T06:23:20;10.50;;;4.50;;
76761;SDS011;65705;51.032;13.790;2023-06-10T06:25:46;8.20;;;4.75;;
76761;SDS011;65705;51.032;13.790;2023-06-10T06:28:11;6.22;;;4.07;;
76761;SDS011;65705;51.032;13.790;2023-06-10T06:30:37;8.27;;;4.90;;
76761;SDS011;65705;51.032;13.790;2023-06-10T06:33:03;10.30;;;4.85;;
76761;SDS011;65705;51.032;13.790;2023-06-10T06:35:34;7.63;;;4.50;;
76761;SDS011;65705;51.032;13.790;2023-06-10T06:38:00;7.55;;;4.40;;
76761;SDS011;65705;51.032;13.790;2023-06-10T06:40:28;10.65;;;7.20;;
76761;SDS011;65705;51.032;13.790;2023-06-10T06:42:54;11.93;;;4.88;;
76761;SDS011;65705;51.032;13.790;2023-06-10T06:45:36;8.65;;;4.43;;
76761;SDS011;65705;51.032;13.790;2023-06-10T06:48:02;10.23;;;4.55;;
76761;SDS011;65705;51.032;13.790;2023-06-10T06:50:27;7.25;;;4.40;;
76761;SDS011;65705;51.032;13.790;2023-06-10T06:52:53;6.10;;;4.40;;
76761;SDS011;65705;51.032;13.790;2023-06-10T06:55:19;7.70;;;4.00;;
76761;SDS011;65705;51.032;13.790;2023-06-10T06:57:45;6.97;;;4.10;;
76761;SDS011;65705;51.032;13.790;2023-06-10T07:00:11;7.18;;;4.63;;
76761;SDS011;65705;51.032;13.790;2023-06-10T07:02:37;6.25;;;4.22;;
76761;SDS011;65705;51.032;13.790;2023-06-10T07:05:03;10.02;;;4.63;;
76761;SDS011;65705;51.032;13.790;2023-06-10T07:07:29;5.63;;;4.03;;
76761;SDS011;65705;51.032;13.790;2023-06-10T07:09:55;7.63;;;4.03;;
76761;SDS011;65705;51.032;13.790;2023-06-10T07:12:20;10.07;;;4.07;;
76761;SDS011;65705;51.032;13.790;2023-06-10T07:14:49;8.80;;;3.67;;
76761;SDS011;65705;51.032;13.790;2023-06-10T07:17:16;5.60;;;3.92;;
76761;SDS011;65705;51.032;13.790;2023-06-10T07:19:43;6.15;;;4.07;;
76761;SDS011;65705;51.032;13.790;2023-06-10T07:22:09;5.72;;;4.05;;
76761;SDS011;65705;51.032;13.790;2023-06-10T07:24:35;6.90;;;3.60;;
76761;SDS011;65705;51.032;13.790;2023-06-10T07:27:01;5.95;;;3.60;;
76761;SDS011;65705;51.032;13.790;2023-06-10T07:29:26;6.10;;;3.85;;
76761;SDS011;65705;51.032;13.790;2023-06-10T07:31:52;8.20;;;3.85;;
76761;SDS011;65705;51.032;13.790;2023-06-10T07:34:18;6.25;;;4.25;;
76761;SDS011;65705;51.032;13.790;2023-06-10T07:36:44;5.88;;;4.03;;
76761;SDS011;65705;51.032;13.790;2023-06-10T07:39:10;7.07;;;4.00;;
76761;SDS011;65705;51.032;13.790;2023-06-10T07:41:36;13.32;;;4.60;;
76761;SDS011;65705;51.032;13.790;2023-06-10T07:44:01;7.57;;;4.82;;
76761;SDS011;65705;51.032;13.790;2023-06-10T07:46:28;10.30;;;4.85;;
76761;SDS011;65705;51.032;13.790;2023-06-10T07:48:54;10.43;;;6.05;;
76761;SDS011;65705;51.032;13.790;2023-06-10T07:51:20;12.32;;;5.65;;
76761;SDS011;65705;51.032;13.790;2023-06-10T07:53:46;9.38;;;5.97;;
76761;SDS011;65705;51.032;13.790;2023-06-10T07:56:12;7.95;;;5.43;;
76761;SDS011;65705;51.032;13.790;2023-06-10T07:58:38;7.82;;;4.57;;
76761;SDS011;65705;51.032;13.790;2023-06-10T08:01:04;7.25;;;4.95;;
76761;SDS011;65705;51.032;13.790;2023-06-10T08:03:29;7.90;;;5.00;;
76761;SDS011;65705;51.032;13.790;2023-06-10T08:05:55;9.10;;;5.07;;
76761;SDS011;65705;51.032;13.790;2023-06-10T08:08:21;8.30;;;4.80;;
76761;SDS011;65705;51.032;13.790;2023-06-10T08:10:46;7.75;;;4.47;;
76761;SDS011;65705;51.032;13.790;2023-06-10T08:13:13;7.00;;;4.07;;
76761;SDS011;65705;51.032;13.790;2023-06-10T08:15:38;6.75;;;4.55;;
76761;SDS011;65705;51.032;13.790;2023-06-10T08:18:04;9.63;;;4.63;;
76761;SDS011;65705;51.032;13.790;2023-06-10T08:20:30;9.38;;;4.80;;
76761;SDS011;65705;51.032;13.790;2023-06-10T08:22:56;7.82;;;5.30;;
76761;SDS011;65705;51.032;13.790;2023-06-10T08:25:21;8.25;;;4.50;;
76761;SDS011;65705;51.032;13.790;2023-06-10T08:27:47;10.10;;;5.78;;
76761;SDS011;65705;51.032;13.790;2023-06-10T08:30:13;10.60;;;5.95;;
76761;SDS011;65705;51.032;13.790;2023-06-10T08:32:39;10.57;;;5.22;;
76761;SDS011;65705;51.032;13.790;2023-06-10T08:35:05;6.03;;;4.25;;
76761;SDS011;65705;51.032;13.790;2023-06-10T08:37:31;8.57;;;4.80;;
76761;SDS011;65705;51.032;13.790;2023-06-10T08:39:56;6.55;;;4.20;;
76761;SDS011;65705;51.032;13.790;2023-06-10T08:42:23;8.20;;;5.20;;
76761;SDS011;65705;51.032;13.790;2023-06-10T08:44:54;8.13;;;4.68;;
76761;SDS011;65705;51.032;13.790;2023-06-10T08:47:22;7.72;;;4.70;;
76761;SDS011;65705;51.032;13.790;2023-06-10T08:49:49;6.22;;;4.00;;
76761;SDS011;65705;51.032;13.790;2023-06-10T08:52:18;8.40;;;4.50;;
76761;SDS011;65705;51.032;13.790;2023-06-10T08:57:26;11.65;;;4.70;;
76761;SDS011;65705;51.032;13.790;2023-06-10T08:59:52;7.32;;;4.60;;
76761;SDS011;65705;51.032;13.790;2023-06-10T09:02:20;8.98;;;4.57;;
76761;SDS011;65705;51.032;13.790;2023-06-10T09:04:46;13.77;;;9.55;;
76761;SDS011;65705;51.032;13.790;2023-06-10T09:07:15;13.13;;;8.45;;
76761;SDS011;65705;51.032;13.790;2023-06-10T09:09:42;7.55;;;5.13;;
76761;SDS011;65705;51.032;13.790;2023-06-10T09:12:09;8.43;;;5.22;;
76761;SDS011;65705;51.032;13.790;2023-06-10T09:14:36;8.40;;;4.70;;
76761;SDS011;65705;51.032;13.790;2023-06-10T09:17:02;8.23;;;5.15;;
76761;SDS011;65705;51.032;13.790;2023-06-10T09:19:29;9.63;;;5.10;;
76761;SDS011;65705;51.032;13.790;2023-06-10T09:21:55;9.75;;;4.63;;
76761;SDS011;65705;51.032;13.790;2023-06-10T09:24:24;6.90;;;4.88;;
76761;SDS011;65705;51.032;13.790;2023-06-10T09:26:50;7.10;;;5.05;;
76761;SDS011;65705;51.032;13.790;2023-06-10T09:29:16;10.55;;;4.15;;
76761;SDS011;65705;51.032;13.790;2023-06-10T09:31:42;9.68;;;4.80;;
76761;SDS011;65705;51.032;13.790;2023-06-10T09:34:13;7.90;;;5.00;;
76761;SDS011;65705;51.032;13.790;2023-06-10T09:36:41;7.82;;;4.38;;
76761;SDS011;65705;51.032;13.790;2023-06-10T09:39:16;7.00;;;5.07;;
76761;SDS011;65705;51.032;13.790;2023-06-10T09:41:44;15.32;;;8.63;;
76761;SDS011;65705;51.032;13.790;2023-06-10T09:44:18;12.27;;;5.90;;
76761;SDS011;65705;51.032;13.790;2023-06-10T09:46:46;10.48;;;6.65;;
76761;SDS011;65705;51.032;13.790;2023-06-10T09:49:12;8.93;;;4.97;;
76761;SDS011;65705;51.032;13.790;2023-06-10T09:51:51;9.68;;;4.47;;
76761;SDS011;65705;51.032;13.790;2023-06-10T09:54:19;8.02;;;4.90;;
76761;SDS011;65705;51.032;13.790;2023-06-10T09:56:49;11.60;;;4.90;;
76761;SDS011;65705;51.032;13.790;2023-06-10T09:59:16;9.90;;;4.85;;
76761;SDS011;65705;51.032;13.790;2023-06-10T10:01:56;5.72;;;4.28;;
76761;SDS011;65705;51.032;13.790;2023-06-10T10:04:25;7.28;;;3.95;;
76761;SDS011;65705;51.032;13.790;2023-06-10T10:06:52;8.20;;;4.25;;
76761;SDS011;65705;51.032;13.790;2023-06-10T10:09:18;6.82;;;4.35;;
76761;SDS011;65705;51.032;13.790;2023-06-10T10:11:44;6.25;;;4.40;;
76761;SDS011;65705;51.032;13.790;2023-06-10T10:14:10;5.68;;;4.10;;
76761;SDS011;65705;51.032;13.790;2023-06-10T10:16:40;8.13;;;4.00;;
76761;SDS011;65705;51.032;13.790;2023-06-10T10:19:08;8.40;;;5.32;;
76761;SDS011;65705;51.032;13.790;2023-06-10T10:21:44;7.78;;;4.75;;
76761;SDS011;65705;51.032;13.790;2023-06-10T10:24:18;9.07;;;6.30;;
76761;SDS011;65705;51.032;13.790;2023-06-10T10:26:47;11.93;;;6.43;;
76761;SDS011;65705;51.032;13.790;2023-06-10T10:29:19;11.55;;;4.78;;
76761;SDS011;65705;51.032;13.790;2023-06-10T10:31:50;7.80;;;4.85;;
76761;SDS011;65705;51.032;13.790;2023-06-10T10:35:06;7.47;;;4.53;;
76761;SDS011;65705;51.032;13.790;2023-06-10T10:37:19;9.40;;;4.53;;
76761;SDS011;65705;51.032;13.790;2023-06-10T10:39:45;9.73;;;4.32;;
76761;SDS011;65705;51.032;13.790;2023-06-10T10:42:11;7.75;;;4.15;;
76761;SDS011;65705;51.032;13.790;2023-06-10T10:44:38;10.70;;;4.47;;
76761;SDS011;65705;51.032;13.790;2023-06-10T10:47:07;6.20;;;3.90;;
76761;SDS011;65705;51.032;13.790;2023-06-10T10:49:34;8.18;;;4.28;;
76761;SDS011;65705;51.032;13.790;2023-06-10T10:52:02;11.93;;;4.88;;
76761;SDS011;65705;51.032;13.790;2023-06-10T10:54:34;6.75;;;4.00;;
76761;SDS011;65705;51.032;13.790;2023-06-10T11:02:32;7.88;;;4.07;;
76761;SDS011;65705;51.032;13.790;2023-06-10T11:05:01;7.40;;;3.97;;
76761;SDS011;65705;51.032;13.790;2023-06-10T11:07:29;10.05;;;4.38;;
76761;SDS011;65705;51.032;13.790;2023-06-10T11:12:25;7.68;;;4.07;;
76761;SDS011;65705;51.032;13.790;2023-06-10T11:14:55;6.00;;;4.07;;
76761;SDS011;65705;51.032;13.790;2023-06-10T11:17:21;7.80;;;4.05;;
76761;SDS011;65705;51.032;13.790;2023-06-10T11:19:49;8.02;;;4.13;;
76761;SDS011;65705;51.032;13.790;2023-06-10T11:22:17;6.25;;;3.70;;
76761;SDS011;65705;51.032;13.790;2023-06-10T11:24:48;6.47;;;3.72;;
76761;SDS011;65705;51.032;13.790;2023-06-10T11:27:19;6.72;;;4.07;;
76761;SDS011;65705;51.032;13.790;2023-06-10T11:32:31;7.57;;;4.00;;
76761;SDS011;65705;51.032;13.790;2023-06-10T11:34:59;6.10;;;3.92;;
76761;SDS011;65705;51.032;13.790;2023-06-10T11:37:25;5.85;;;3.80;;
76761;SDS011;65705;51.032;13.790;2023-06-10T11:39:51;8.98;;;4.80;;
76761;SDS011;65705;51.032;13.790;2023-06-10T11:42:19;8.25;;;5.03;;
76761;SDS011;65705;51.032;13.790;2023-06-10T11:44:49;8.25;;;5.00;;
76761;SDS011;65705;51.032;13.790;2023-06-10T11:47:18;10.45;;;6.40;;
76761;SDS011;65705;51.032;13.790;2023-06-10T11:49:45;14.45;;;4.50;;
76761;SDS011;65705;51.032;13.790;2023-06-10T11:52:27;6.80;;;4.00;;
76761;SDS011;65705;51.032;13.790;2023-06-10T11:55:03;7.88;;;4.05;;
76761;SDS011;65705;51.032;13.790;2023-06-10T11:57:33;8.25;;;3.97;;
76761;SDS011;65705;51.032;13.790;2023-06-10T12:00:03;8.13;;;3.85;;
76761;SDS011;65705;51.032;13.790;2023-06-10T12:02:36;7.47;;;3.85;;
76761;SDS011;65705;51.032;13.790;2023-06-10T12:05:20;6.93;;;3.80;;
76761;SDS011;65705;51.032;13.790;2023-06-10T12:07:46;7.38;;;4.35;;
76761;SDS011;65705;51.032;13.790;2023-06-10T12:10:11;8.25;;;3.72;;
76761;SDS011;65705;51.032;13.790;2023-06-10T12:12:40;8.88;;;3.55;;
76761;SDS011;65705;51.032;13.790;2023-06-10T12:15:06;7.13;;;3.83;;
76761;SDS011;65705;51.032;13.790;2023-06-10T12:19:59;5.60;;;3.25;;
76761;SDS011;65705;51.032;13.790;2023-06-10T12:22:26;6.70;;;3.80;;
76761;SDS011;65705;51.032;13.790;2023-06-10T12:24:59;6.75;;;4.30;;
76761;SDS011;65705;51.032;13.790;2023-06-10T12:27:26;8.40;;;4.43;;
76761;SDS011;65705;51.032;13.790;2023-06-10T12:29:55;9.30;;;5.63;;
76761;SDS011;65705;51.032;13.790;2023-06-10T12:32:34;6.32;;;4.43;;
76761;SDS011;65705;51.032;13.790;2023-06-10T12:35:04;6.75;;;3.55;;
76761;SDS011;65705;51.032;13.790;2023-06-10T12:37:30;6.95;;;3.85;;
76761;SDS011;65705;51.032;13.790;2023-06-10T12:40:00;7.70;;;3.70;;
76761;SDS011;65705;51.032;13.790;2023-06-10T12:42:28;7.93;;;4.13;;
76761;SDS011;65705;51.032;13.790;2023-06-10T12:44:55;6.07;;;3.78;;
76761;SDS011;65705;51.032;13.790;2023-06-10T12:47:35;9.10;;;4.40;;
76761;SDS011;65705;51.032;13.790;2023-06-10T12:50:04;6.80;;;3.88;;
76761;SDS011;65705;51.032;13.790;2023-06-10T12:52:31;9.48;;;4.28;;
76761;SDS011;65705;51.032;13.790;2023-06-10T12:54:57;9.60;;;4.65;;
76761;SDS011;65705;51.032;13.790;2023-06-10T12:57:24;9.02;;;4.20;;
76761;SDS011;65705;51.032;13.790;2023-06-10T12:59:50;7.57;;;3.97;;
76761;SDS011;65705;51.032;13.790;2023-06-10T13:02:20;8.32;;;3.97;;
76761;SDS011;65705;51.032;13.790;2023-06-10T13:04:49;7.72;;;4.60;;
76761;SDS011;65705;51.032;13.790;2023-06-10T13:07:15;8.80;;;4.82;;
76761;SDS011;65705;51.032;13.790;2023-06-10T13:09:41;8.10;;;4.55;;
76761;SDS011;65705;51.032;13.790;2023-06-10T13:12:08;7.53;;;4.32;;
76761;SDS011;65705;51.032;13.790;2023-06-10T13:14:33;7.85;;;3.70;;
76761;SDS011;65705;51.032;13.790;2023-06-10T13:16:59;7.38;;;3.63;;
76761;SDS011;65705;51.032;13.790;2023-06-10T13:19:25;6.80;;;3.40;;
76761;SDS011;65705;51.032;13.790;2023-06-10T13:21:51;8.23;;;3.80;;
76761;SDS011;65705;51.032;13.790;2023-06-10T13:24:17;6.78;;;4.00;;
76761;SDS011;65705;51.032;13.790;2023-06-10T13:26:43;10.18;;;3.75;;
76761;SDS011;65705;51.032;13.790;2023-06-10T13:29:09;7.47;;;3.22;;
76761;SDS011;65705;51.032;13.790;2023-06-10T13:31:39;7.53;;;3.60;;
76761;SDS011;65705;51.032;13.790;2023-06-10T13:34:05;6.75;;;3.17;;
76761;SDS011;65705;51.032;13.790;2023-06-10T13:36:31;5.28;;;3.13;;
76761;SDS011;65705;51.032;13.790;2023-06-10T13:38:58;5.68;;;3.05;;
76761;SDS011;65705;51.032;13.790;2023-06-10T13:41:23;7.18;;;3.20;;
76761;SDS011;65705;51.032;13.790;2023-06-10T13:43:50;8.73;;;3.33;;
76761;SDS011;65705;51.032;13.790;2023-06-10T13:46:15;4.93;;;3.22;;
76761;SDS011;65705;51.032;13.790;2023-06-10T13:48:41;6.47;;;3.25;;
76761;SDS011;65705;51.032;13.790;2023-06-10T13:51:07;5.25;;;3.28;;
76761;SDS011;65705;51.032;13.790;2023-06-10T13:53:34;13.68;;;3.15;;
76761;SDS011;65705;51.032;13.790;2023-06-10T13:56:00;5.50;;;2.70;;
76761;SDS011;65705;51.032;13.790;2023-06-10T13:58:26;7.95;;;3.97;;
76761;SDS011;65705;51.032;13.790;2023-06-10T14:00:51;7.30;;;3.67;;
76761;SDS011;65705;51.032;13.790;2023-06-10T14:03:18;6.20;;;3.75;;
76761;SDS011;65705;51.032;13.790;2023-06-10T14:05:44;7.85;;;4.00;;
76761;SDS011;65705;51.032;13.790;2023-06-10T14:08:09;4.78;;;2.88;;
76761;SDS011;65705;51.032;13.790;2023-06-10T14:10:35;4.80;;;2.95;;
76761;SDS011;65705;51.032;13.790;2023-06-10T14:13:01;4.78;;;2.80;;
76761;SDS011;65705;51.032;13.790;2023-06-10T14:15:26;8.00;;;3.42;;
76761;SDS011;65705;51.032;13.790;2023-06-10T14:17:52;7.95;;;3.20;;
76761;SDS011;65705;51.032;13.790;2023-06-10T14:20:18;5.10;;;3.33;;
76761;SDS011;65705;51.032;13.790;2023-06-10T14:22:43;5.88;;;3.30;;
76761;SDS011;65705;51.032;13.790;2023-06-10T14:25:09;7.10;;;3.00;;
76761;SDS011;65705;51.032;13.790;2023-06-10T14:27:36;8.60;;;2.92;;
76761;SDS011;65705;51.032;13.790;2023-06-10T14:30:02;9.15;;;3.28;;
76761;SDS011;65705;51.032;13.790;2023-06-10T14:32:28;5.95;;;2.90;;
76761;SDS011;65705;51.032;13.790;2023-06-10T14:34:54;5.25;;;2.97;;
76761;SDS011;65705;51.032;13.790;2023-06-10T14:37:20;6.72;;;3.13;;
76761;SDS011;65705;51.032;13.790;2023-06-10T14:39:46;6.15;;;3.00;;
76761;SDS011;65705;51.032;13.790;2023-06-10T14:42:11;6.68;;;3.47;;
76761;SDS011;65705;51.032;13.790;2023-06-10T14:44:37;5.57;;;3.20;;
76761;SDS011;65705;51.032;13.790;2023-06-10T14:47:02;7.20;;;3.33;;
76761;SDS011;65705;51.032;13.790;2023-06-10T14:49:28;7.57;;;3.40;;
76761;SDS011;65705;51.032;13.790;2023-06-10T14:51:54;7.65;;;3.20;;
76761;SDS011;65705;51.032;13.790;2023-06-10T14:54:20;7.00;;;3.47;;
76761;SDS011;65705;51.032;13.790;2023-06-10T14:56:45;6.90;;;3.70;;
76761;SDS011;65705;51.032;13.790;2023-06-10T14:59:11;6.72;;;3.42;;